sensor_id;sensor_type;location;lat;lon;timestamp;temperature;humidity
25024;DHT22;13033;50.936;5.334;2023-03-24T00:01:10;13.10;99.90
25024;DHT22;13033;50.936;5.334;2023-03-24T00:03:36;13.10;99.90
25024;DHT22;13033;50.936;5.334;2023-03-24T00:06:04;13.10;99.90
25024;DHT22;13033;50.936;5.334;2023-03-24T00:08:32;13.10;99.90
25024;DHT22;13033;50.936;5.334;2023-03-24T00:11:05;13.00;99.90
25024;DHT22;13033;50.936;5.334;2023-03-24T00:13:32;13.00;99.90
25024;DHT22;13033;50.936;5.334;2023-03-24T00:16:07;13.00;99.90
25024;DHT22;13033;50.936;5.334;2023-03-24T00:18:34;12.90;99.90
25024;DHT22;13033;50.936;5.334;2023-03-24T00:21:05;13.00;99.90
25024;DHT22;13033;50.936;5.334;2023-03-24T00:23:32;13.00;99.90
25024;DHT22;13033;50.936;5.334;2023-03-24T00:26:06;13.10;99.90
25024;DHT22;13033;50.936;5.334;2023-03-24T00:28:35;13.00;99.90
25024;DHT22;13033;50.936;5.334;2023-03-24T00:31:02;13.00;99.90
25024;DHT22;13033;50.936;5.334;2023-03-24T00:33:29;13.00;99.90
25024;DHT22;13033;50.936;5.334;2023-03-24T00:36:00;13.00;99.90
25024;DHT22;13033;50.936;5.334;2023-03-24T00:38:26;13.00;99.90
25024;DHT22;13033;50.936;5.334;2023-03-24T00:40:53;13.00;99.90
25024;DHT22;13033;50.936;5.334;2023-03-24T00:43:19;12.90;99.90
25024;DHT22;13033;50.936;5.334;2023-03-24T00:45:45;12.90;99.90
25024;DHT22;13033;50.936;5.334;2023-03-24T00:48:12;12.90;99.90
25024;DHT22;13033;50.936;5.334;2023-03-24T00:50:38;13.00;99.90
25024;DHT22;13033;50.936;5.334;2023-03-24T00:53:04;13.00;99.90
25024;DHT22;13033;50.936;5.334;2023-03-24T00:55:30;12.90;99.90
25024;DHT22;13033;50.936;5.334;2023-03-24T00:57:56;13.00;99.90
25024;DHT22;13033;50.936;5.334;2023-03-24T01:00:24;13.00;99.90
25024;DHT22;13033;50.936;5.334;2023-03-24T01:02:51;13.00;99.90
25024;DHT22;13033;50.936;5.334;2023-03-24T01:05:19;13.00;99.90
25024;DHT22;13033;50.936;5.334;2023-03-24T01:07:45;13.00;99.90
25024;DHT22;13033;50.936;5.334;2023-03-24T01:10:17;13.00;99.90
25024;DHT22;13033;50.936;5.334;2023-03-24T01:12:44;13.00;99.90
25024;DHT22;13033;50.936;5.334;2023-03-24T01:15:16;13.00;99.90
25024;DHT22;13033;50.936;5.334;2023-03-24T01:17:42;13.10;99.90
25024;DHT22;13033;50.936;5.334;2023-03-24T01:20:09;13.10;99.90
25024;DHT22;13033;50.936;5.334;2023-03-24T01:22:37;13.10;99.90
25024;DHT22;13033;50.936;5.334;2023-03-24T01:25:05;13.10;99.90
25024;DHT22;13033;50.936;5.334;2023-03-24T01:27:32;13.10;99.90
25024;DHT22;13033;50.936;5.334;2023-03-24T01:30:01;13.10;99.90
25024;DHT22;13033;50.936;5.334;2023-03-24T01:32:28;13.10;99.90
25024;DHT22;13033;50.936;5.334;2023-03-24T01:34:54;13.10;99.90
25024;DHT22;13033;50.936;5.334;2023-03-24T01:37:20;13.10;99.90
25024;DHT22;13033;50.936;5.334;2023-03-24T01:39:48;13.20;99.90
25024;DHT22;13033;50.936;5.334;2023-03-24T01:42:19;13.30;99.90
25024;DHT22;13033;50.936;5.334;2023-03-24T01:44:49;13.30;99.90
25024;DHT22;13033;50.936;5.334;2023-03-24T01:47:16;13.30;99.90
25024;DHT22;13033;50.936;5.334;2023-03-24T01:49:53;13.30;99.90
25024;DHT22;13033;50.936;5.334;2023-03-24T01:52:25;13.30;99.90
25024;DHT22;13033;50.936;5.334;2023-03-24T01:55:02;13.30;99.90
25024;DHT22;13033;50.936;5.334;2023-03-24T01:57:35;13.30;99.90
25024;DHT22;13033;50.936;5.334;2023-03-24T02:00:08;13.40;99.90
25024;DHT22;13033;50.936;5.334;2023-03-24T02:02:35;13.40;99.90
25024;DHT22;13033;50.936;5.334;2023-03-24T02:05:05;13.40;99.90
25024;DHT22;13033;50.936;5.334;2023-03-24T02:09:58;13.30;99.90
25024;DHT22;13033;50.936;5.334;2023-03-24T02:12:25;13.40;99.90
25024;DHT22;13033;50.936;5.334;2023-03-24T02:14:52;13.40;99.90
25024;DHT22;13033;50.936;5.334;2023-03-24T02:17:46;13.50;99.90
25024;DHT22;13033;50.936;5.334;2023-03-24T02:20:29;13.50;99.90
25024;DHT22;13033;50.936;5.334;2023-03-24T02:45:03;13.80;99.90
25024;DHT22;13033;50.936;5.334;2023-03-24T02:47:42;13.90;99.90
25024;DHT22;13033;50.936;5.334;2023-03-24T02:50:21;13.90;99.90
25024;DHT22;13033;50.936;5.334;2023-03-24T02:55:49;13.90;99.90
25024;DHT22;13033;50.936;5.334;2023-03-24T02:58:30;13.90;99.90
25024;DHT22;13033;50.936;5.334;2023-03-24T03:01:07;13.70;99.90
25024;DHT22;13033;50.936;5.334;2023-03-24T03:03:51;13.70;99.90
25024;DHT22;13033;50.936;5.334;2023-03-24T03:06:19;13.70;99.90
25024;DHT22;13033;50.936;5.334;2023-03-24T03:08:47;13.60;99.90
25024;DHT22;13033;50.936;5.334;2023-03-24T03:11:15;13.50;99.90
25024;DHT22;13033;50.936;5.334;2023-03-24T03:13:50;13.60;99.90
25024;DHT22;13033;50.936;5.334;2023-03-24T03:16:43;13.50;99.90
25024;DHT22;13033;50.936;5.334;2023-03-24T03:19:23;13.60;99.90
25024;DHT22;13033;50.936;5.334;2023-03-24T03:21:51;13.50;99.90
25024;DHT22;13033;50.936;5.334;2023-03-24T03:24:22;13.60;99.90
25024;DHT22;13033;50.936;5.334;2023-03-24T03:26:59;13.60;99.90
25024;DHT22;13033;50.936;5.334;2023-03-24T03:29:30;13.60;99.90
25024;DHT22;13033;50.936;5.334;2023-03-24T03:32:01;13.50;99.90
25024;DHT22;13033;50.936;5.334;2023-03-24T03:39:32;13.40;99.90
25024;DHT22;13033;50.936;5.334;2023-03-24T03:41:59;13.40;99.90
25024;DHT22;13033;50.936;5.334;2023-03-24T03:44:26;13.30;99.90
25024;DHT22;13033;50.936;5.334;2023-03-24T03:46:52;13.20;99.90
25024;DHT22;13033;50.936;5.334;2023-03-24T03:49:18;13.20;99.90
25024;DHT22;13033;50.936;5.334;2023-03-24T03:51:44;13.10;99.90
25024;DHT22;13033;50.936;5.334;2023-03-24T03:54:12;12.80;99.90
25024;DHT22;13033;50.936;5.334;2023-03-24T03:56:38;12.70;99.90
25024;DHT22;13033;50.936;5.334;2023-03-24T03:59:05;12.60;99.90
25024;DHT22;13033;50.936;5.334;2023-03-24T04:01:33;12.60;99.90
25024;DHT22;13033;50.936;5.334;2023-03-24T04:04:09;12.50;99.90
25024;DHT22;13033;50.936;5.334;2023-03-24T04:06:53;12.50;99.90
25024;DHT22;13033;50.936;5.334;2023-03-24T04:15:42;12.00;99.90
25024;DHT22;13033;50.936;5.334;2023-03-24T04:21:02;12.00;99.90
25024;DHT22;13033;50.936;5.334;2023-03-24T04:23:43;12.00;99.90
25024;DHT22;13033;50.936;5.334;2023-03-24T04:34:24;11.80;99.90
25024;DHT22;13033;50.936;5.334;2023-03-24T04:37:01;11.90;99.90
25024;DHT22;13033;50.936;5.334;2023-03-24T04:39:31;11.90;99.90
25024;DHT22;13033;50.936;5.334;2023-03-24T04:42:01;11.80;99.90
25024;DHT22;13033;50.936;5.334;2023-03-24T04:44:29;11.70;99.90
25024;DHT22;13033;50.936;5.334;2023-03-24T04:46:58;11.60;99.90
25024;DHT22;13033;50.936;5.334;2023-03-24T04:49:27;11.60;99.90
25024;DHT22;13033;50.936;5.334;2023-03-24T04:51:53;11.40;99.90
25024;DHT22;13033;50.936;5.334;2023-03-24T04:54:21;11.40;99.90
25024;DHT22;13033;50.936;5.334;2023-03-24T04:56:49;11.30;99.90
25024;DHT22;13033;50.936;5.334;2023-03-24T04:59:16;11.30;99.90
25024;DHT22;13033;50.936;5.334;2023-03-24T05:01:42;11.20;99.90
25024;DHT22;13033;50.936;5.334;2023-03-24T05:04:18;11.20;99.90
25024;DHT22;13033;50.936;5.334;2023-03-24T05:06:44;11.20;99.90
25024;DHT22;13033;50.936;5.334;2023-03-24T05:09:15;11.30;99.90
25024;DHT22;13033;50.936;5.334;2023-03-24T05:11:42;11.30;99.90
25024;DHT22;13033;50.936;5.334;2023-03-24T05:14:08;11.20;99.90
25024;DHT22;13033;50.936;5.334;2023-03-24T05:16:34;11.20;99.90
25024;DHT22;13033;50.936;5.334;2023-03-24T05:19:01;11.20;99.90
25024;DHT22;13033;50.936;5.334;2023-03-24T05:21:29;11.20;99.90
25024;DHT22;13033;50.936;5.334;2023-03-24T05:23:55;11.20;99.90
25024;DHT22;13033;50.936;5.334;2023-03-24T05:26:20;11.20;99.90
25024;DHT22;13033;50.936;5.334;2023-03-24T05:28:46;11.10;99.90
25024;DHT22;13033;50.936;5.334;2023-03-24T05:31:12;11.10;99.90
25024;DHT22;13033;50.936;5.334;2023-03-24T05:33:38;11.20;99.90
25024;DHT22;13033;50.936;5.334;2023-03-24T05:36:04;11.10;99.90
25024;DHT22;13033;50.936;5.334;2023-03-24T05:38:30;11.20;99.90
25024;DHT22;13033;50.936;5.334;2023-03-24T05:40:57;11.20;99.90
25024;DHT22;13033;50.936;5.334;2023-03-24T05:43:23;11.20;99.90
25024;DHT22;13033;50.936;5.334;2023-03-24T05:45:48;11.20;99.90
25024;DHT22;13033;50.936;5.334;2023-03-24T05:48:14;11.20;99.90
25024;DHT22;13033;50.936;5.334;2023-03-24T05:50:40;11.30;99.90
25024;DHT22;13033;50.936;5.334;2023-03-24T05:53:06;11.30;99.90
25024;DHT22;13033;50.936;5.334;2023-03-24T05:55:32;11.40;99.90
25024;DHT22;13033;50.936;5.334;2023-03-24T05:57:57;11.40;99.90
25024;DHT22;13033;50.936;5.334;2023-03-24T06:00:27;11.20;99.90
25024;DHT22;13033;50.936;5.334;2023-03-24T06:02:53;11.20;99.90
25024;DHT22;13033;50.936;5.334;2023-03-24T06:05:19;11.20;99.90
25024;DHT22;13033;50.936;5.334;2023-03-24T06:07:44;11.10;99.90
25024;DHT22;13033;50.936;5.334;2023-03-24T06:10:11;11.10;99.90
25024;DHT22;13033;50.936;5.334;2023-03-24T06:12:39;11.20;99.90
25024;DHT22;13033;50.936;5.334;2023-03-24T06:15:06;11.20;99.90
25024;DHT22;13033;50.936;5.334;2023-03-24T06:17:32;11.20;99.90
25024;DHT22;13033;50.936;5.334;2023-03-24T06:19:59;11.20;99.90
25024;DHT22;13033;50.936;5.334;2023-03-24T06:22:36;11.30;99.90
25024;DHT22;13033;50.936;5.334;2023-03-24T06:25:03;11.30;99.90
25024;DHT22;13033;50.936;5.334;2023-03-24T06:27:28;11.40;99.90
25024;DHT22;13033;50.936;5.334;2023-03-24T06:29:58;11.40;99.90
25024;DHT22;13033;50.936;5.334;2023-03-24T06:32:25;11.40;99.90
25024;DHT22;13033;50.936;5.334;2023-03-24T06:34:51;11.50;99.90
25024;DHT22;13033;50.936;5.334;2023-03-24T06:37:17;11.40;99.90
25024;DHT22;13033;50.936;5.334;2023-03-24T06:39:45;11.30;99.90
25024;DHT22;13033;50.936;5.334;2023-03-24T06:42:11;11.20;99.90
25024;DHT22;13033;50.936;5.334;2023-03-24T06:44:37;11.30;99.90
25024;DHT22;13033;50.936;5.334;2023-03-24T06:47:03;11.30;99.90
25024;DHT22;13033;50.936;5.334;2023-03-24T06:49:29;11.30;99.90
25024;DHT22;13033;50.936;5.334;2023-03-24T06:51:55;11.20;99.90
25024;DHT22;13033;50.936;5.334;2023-03-24T06:54:21;11.30;99.90
25024;DHT22;13033;50.936;5.334;2023-03-24T06:56:47;11.20;99.90
25024;DHT22;13033;50.936;5.334;2023-03-24T06:59:13;11.20;99.90
25024;DHT22;13033;50.936;5.334;2023-03-24T07:01:38;11.30;99.90
25024;DHT22;13033;50.936;5.334;2023-03-24T07:04:04;11.30;99.90
25024;DHT22;13033;50.936;5.334;2023-03-24T07:06:31;11.40;99.90
25024;DHT22;13033;50.936;5.334;2023-03-24T07:08:57;11.40;99.90
25024;DHT22;13033;50.936;5.334;2023-03-24T07:11:24;11.50;99.90
25024;DHT22;13033;50.936;5.334;2023-03-24T07:13:49;11.50;99.90
25024;DHT22;13033;50.936;5.334;2023-03-24T07:16:15;11.60;99.90
25024;DHT22;13033;50.936;5.334;2023-03-24T07:18:41;11.70;99.90
25024;DHT22;13033;50.936;5.334;2023-03-24T07:21:07;11.70;99.90
25024;DHT22;13033;50.936;5.334;2023-03-24T07:23:33;11.70;99.90
25024;DHT22;13033;50.936;5.334;2023-03-24T07:25:59;11.90;99.90
25024;DHT22;13033;50.936;5.334;2023-03-24T07:28:25;11.70;99.90
25024;DHT22;13033;50.936;5.334;2023-03-24T07:30:50;11.70;99.90
25024;DHT22;13033;50.936;5.334;2023-03-24T07:33:16;11.70;99.90
25024;DHT22;13033;50.936;5.334;2023-03-24T07:35:42;11.90;99.90
25024;DHT22;13033;50.936;5.334;2023-03-24T07:38:08;11.80;99.90
25024;DHT22;13033;50.936;5.334;2023-03-24T07:40:34;12.00;99.90
25024;DHT22;13033;50.936;5.334;2023-03-24T07:43:02;12.00;99.90
25024;DHT22;13033;50.936;5.334;2023-03-24T07:45:33;11.90;99.90
25024;DHT22;13033;50.936;5.334;2023-03-24T07:47:58;11.80;99.90
25024;DHT22;13033;50.936;5.334;2023-03-24T07:50:30;11.80;99.90
25024;DHT22;13033;50.936;5.334;2023-03-24T07:52:57;11.60;99.90
25024;DHT22;13033;50.936;5.334;2023-03-24T07:55:23;11.70;99.90
25024;DHT22;13033;50.936;5.334;2023-03-24T07:57:49;11.90;99.90
25024;DHT22;13033;50.936;5.334;2023-03-24T08:00:16;12.00;99.90
25024;DHT22;13033;50.936;5.334;2023-03-24T08:02:44;12.00;99.90
25024;DHT22;13033;50.936;5.334;2023-03-24T08:05:11;12.20;99.90
25024;DHT22;13033;50.936;5.334;2023-03-24T08:07:42;12.30;99.90
25024;DHT22;13033;50.936;5.334;2023-03-24T08:10:12;12.40;99.90
25024;DHT22;13033;50.936;5.334;2023-03-24T08:12:40;12.40;99.90
25024;DHT22;13033;50.936;5.334;2023-03-24T08:15:07;12.50;99.90
25024;DHT22;13033;50.936;5.334;2023-03-24T08:17:33;12.70;99.90
25024;DHT22;13033;50.936;5.334;2023-03-24T08:19:59;12.90;99.90
25024;DHT22;13033;50.936;5.334;2023-03-24T08:22:26;13.00;99.90
25024;DHT22;13033;50.936;5.334;2023-03-24T08:24:51;13.10;99.90
25024;DHT22;13033;50.936;5.334;2023-03-24T08:27:17;13.20;99.90
25024;DHT22;13033;50.936;5.334;2023-03-24T08:29:43;13.10;99.90
25024;DHT22;13033;50.936;5.334;2023-03-24T08:32:09;12.90;99.90
25024;DHT22;13033;50.936;5.334;2023-03-24T08:34:34;12.90;99.90
25024;DHT22;13033;50.936;5.334;2023-03-24T08:37:00;12.80;99.90
25024;DHT22;13033;50.936;5.334;2023-03-24T08:39:26;12.80;99.90
25024;DHT22;13033;50.936;5.334;2023-03-24T08:41:52;12.70;99.90
25024;DHT22;13033;50.936;5.334;2023-03-24T08:44:19;12.80;99.90
25024;DHT22;13033;50.936;5.334;2023-03-24T08:46:45;13.00;99.90
25024;DHT22;13033;50.936;5.334;2023-03-24T08:49:11;13.10;99.90
25024;DHT22;13033;50.936;5.334;2023-03-24T08:51:36;13.00;99.90
25024;DHT22;13033;50.936;5.334;2023-03-24T08:54:03;13.20;99.90
25024;DHT22;13033;50.936;5.334;2023-03-24T08:56:29;13.10;99.90
25024;DHT22;13033;50.936;5.334;2023-03-24T08:58:55;13.00;99.90
25024;DHT22;13033;50.936;5.334;2023-03-24T09:01:22;12.90;99.90
25024;DHT22;13033;50.936;5.334;2023-03-24T09:03:48;13.00;99.90
25024;DHT22;13033;50.936;5.334;2023-03-24T09:06:14;13.10;99.90
25024;DHT22;13033;50.936;5.334;2023-03-24T09:08:40;13.00;99.90
25024;DHT22;13033;50.936;5.334;2023-03-24T09:11:11;13.00;99.90
25024;DHT22;13033;50.936;5.334;2023-03-24T09:13:37;13.00;99.90
25024;DHT22;13033;50.936;5.334;2023-03-24T09:16:03;13.00;99.90
25024;DHT22;13033;50.936;5.334;2023-03-24T09:18:29;12.90;99.90
25024;DHT22;13033;50.936;5.334;2023-03-24T09:20:55;12.90;99.90
25024;DHT22;13033;50.936;5.334;2023-03-24T09:23:21;12.90;99.90
25024;DHT22;13033;50.936;5.334;2023-03-24T09:25:50;13.10;99.90
25024;DHT22;13033;50.936;5.334;2023-03-24T09:28:16;13.20;99.90
25024;DHT22;13033;50.936;5.334;2023-03-24T09:30:43;13.50;99.90
25024;DHT22;13033;50.936;5.334;2023-03-24T09:33:08;13.80;99.90
25024;DHT22;13033;50.936;5.334;2023-03-24T09:35:34;14.00;99.90
25024;DHT22;13033;50.936;5.334;2023-03-24T09:38:00;14.10;99.90
25024;DHT22;13033;50.936;5.334;2023-03-24T09:40:32;13.80;99.90
25024;DHT22;13033;50.936;5.334;2023-03-24T09:43:13;13.70;99.90
25024;DHT22;13033;50.936;5.334;2023-03-24T09:45:51;13.80;99.90
25024;DHT22;13033;50.936;5.334;2023-03-24T09:48:45;13.80;99.90
25024;DHT22;13033;50.936;5.334;2023-03-24T09:51:25;14.00;99.90
25024;DHT22;13033;50.936;5.334;2023-03-24T09:56:35;14.00;99.90
25024;DHT22;13033;50.936;5.334;2023-03-24T09:59:12;13.90;99.90
25024;DHT22;13033;50.936;5.334;2023-03-24T10:01:39;13.70;99.90
25024;DHT22;13033;50.936;5.334;2023-03-24T10:04:16;13.60;99.90
25024;DHT22;13033;50.936;5.334;2023-03-24T10:06:43;13.60;99.90
25024;DHT22;13033;50.936;5.334;2023-03-24T10:17:03;14.40;99.90
25024;DHT22;13033;50.936;5.334;2023-03-24T10:19:57;14.40;99.90
25024;DHT22;13033;50.936;5.334;2023-03-24T10:25:22;14.30;99.90
25024;DHT22;13033;50.936;5.334;2023-03-24T10:28:01;14.30;99.90
25024;DHT22;13033;50.936;5.334;2023-03-24T10:30:33;14.30;99.90
25024;DHT22;13033;50.936;5.334;2023-03-24T10:33:01;14.30;99.90
25024;DHT22;13033;50.936;5.334;2023-03-24T10:35:56;14.30;99.90
25024;DHT22;13033;50.936;5.334;2023-03-24T10:38:23;14.20;99.90
25024;DHT22;13033;50.936;5.334;2023-03-24T10:40:49;14.20;99.90
25024;DHT22;13033;50.936;5.334;2023-03-24T10:43:16;14.20;99.90
25024;DHT22;13033;50.936;5.334;2023-03-24T10:45:46;14.30;99.90
25024;DHT22;13033;50.936;5.334;2023-03-24T10:48:14;14.30;99.90
25024;DHT22;13033;50.936;5.334;2023-03-24T10:50:58;14.60;99.90
25024;DHT22;13033;50.936;5.334;2023-03-24T10:53:24;14.70;99.90
25024;DHT22;13033;50.936;5.334;2023-03-24T10:55:50;14.70;99.90
25024;DHT22;13033;50.936;5.334;2023-03-24T10:58:37;14.70;99.90
25024;DHT22;13033;50.936;5.334;2023-03-24T11:01:27;14.60;99.90
25024;DHT22;13033;50.936;5.334;2023-03-24T11:04:03;14.60;99.90
25024;DHT22;13033;50.936;5.334;2023-03-24T11:06:30;14.50;99.90
25024;DHT22;13033;50.936;5.334;2023-03-24T11:09:19;14.20;99.90
25024;DHT22;13033;50.936;5.334;2023-03-24T11:11:45;14.40;99.90
25024;DHT22;13033;50.936;5.334;2023-03-24T11:14:23;14.40;99.90
25024;DHT22;13033;50.936;5.334;2023-03-24T11:16:51;14.50;99.90
25024;DHT22;13033;50.936;5.334;2023-03-24T11:19:23;14.70;99.90
25024;DHT22;13033;50.936;5.334;2023-03-24T11:21:51;15.00;99.90
25024;DHT22;13033;50.936;5.334;2023-03-24T11:24:21;15.30;99.90
25024;DHT22;13033;50.936;5.334;2023-03-24T11:26:58;15.50;99.90
25024;DHT22;13033;50.936;5.334;2023-03-24T11:29:27;15.10;99.90
25024;DHT22;13033;50.936;5.334;2023-03-24T11:32:02;15.10;99.90
25024;DHT22;13033;50.936;5.334;2023-03-24T11:34:34;15.20;99.90
25024;DHT22;13033;50.936;5.334;2023-03-24T11:37:19;15.30;99.90
25024;DHT22;13033;50.936;5.334;2023-03-24T11:40:14;15.50;99.90
25024;DHT22;13033;50.936;5.334;2023-03-24T11:42:46;15.70;99.90
25024;DHT22;13033;50.936;5.334;2023-03-24T11:47:50;16.00;99.90
25024;DHT22;13033;50.936;5.334;2023-03-24T11:50:23;16.00;99.90
25024;DHT22;13033;50.936;5.334;2023-03-24T11:53:14;15.70;99.90
25024;DHT22;13033;50.936;5.334;2023-03-24T11:58:43;15.10;99.90
25024;DHT22;13033;50.936;5.334;2023-03-24T12:01:29;15.10;99.90
25024;DHT22;13033;50.936;5.334;2023-03-24T12:09:42;15.60;99.90
25024;DHT22;13033;50.936;5.334;2023-03-24T12:12:32;15.80;99.90
25024;DHT22;13033;50.936;5.334;2023-03-24T12:17:57;16.00;99.90
25024;DHT22;13033;50.936;5.334;2023-03-24T12:20:29;15.80;99.90
25024;DHT22;13033;50.936;5.334;2023-03-24T12:22:59;15.80;99.90
25024;DHT22;13033;50.936;5.334;2023-03-24T12:41:51;16.50;99.90
25024;DHT22;13033;50.936;5.334;2023-03-24T12:52:40;16.00;99.90
25024;DHT22;13033;50.936;5.334;2023-03-24T12:55:13;15.70;99.90
25024;DHT22;13033;50.936;5.334;2023-03-24T12:57:47;15.50;99.90
25024;DHT22;13033;50.936;5.334;2023-03-24T13:02:59;15.10;99.90
25024;DHT22;13033;50.936;5.334;2023-03-24T13:05:30;13.80;99.90
25024;DHT22;13033;50.936;5.334;2023-03-24T13:08:00;13.50;99.90
25024;DHT22;13033;50.936;5.334;2023-03-24T13:10:28;13.70;99.90
25024;DHT22;13033;50.936;5.334;2023-03-24T13:13:21;14.00;99.90
25024;DHT22;13033;50.936;5.334;2023-03-24T13:16:21;14.30;99.90
25024;DHT22;13033;50.936;5.334;2023-03-24T13:18:50;14.30;99.90
25024;DHT22;13033;50.936;5.334;2023-03-24T13:21:18;14.30;99.90
25024;DHT22;13033;50.936;5.334;2023-03-24T13:23:56;14.50;99.90
25024;DHT22;13033;50.936;5.334;2023-03-24T13:31:18;14.90;99.90
25024;DHT22;13033;50.936;5.334;2023-03-24T13:33:44;14.90;99.90
25024;DHT22;13033;50.936;5.334;2023-03-24T13:38:56;15.00;99.90
25024;DHT22;13033;50.936;5.334;2023-03-24T13:41:24;15.20;99.90
25024;DHT22;13033;50.936;5.334;2023-03-24T13:44:08;15.50;99.90
25024;DHT22;13033;50.936;5.334;2023-03-24T13:46:40;15.80;99.90
25024;DHT22;13033;50.936;5.334;2023-03-24T13:49:10;16.00;99.90
25024;DHT22;13033;50.936;5.334;2023-03-24T13:51:42;15.80;99.90
25024;DHT22;13033;50.936;5.334;2023-03-24T13:54:26;15.50;99.90
25024;DHT22;13033;50.936;5.334;2023-03-24T14:00:01;15.20;99.90
25024;DHT22;13033;50.936;5.334;2023-03-24T14:02:44;15.20;99.90
25024;DHT22;13033;50.936;5.334;2023-03-24T14:08:15;15.00;99.90
25024;DHT22;13033;50.936;5.334;2023-03-24T14:10:45;14.70;99.90
25024;DHT22;13033;50.936;5.334;2023-03-24T14:15:52;14.40;99.90
25024;DHT22;13033;50.936;5.334;2023-03-24T14:25:54;12.00;99.90
25024;DHT22;13033;50.936;5.334;2023-03-24T14:28:31;11.90;99.90
25024;DHT22;13033;50.936;5.334;2023-03-24T14:31:07;11.90;99.90
25024;DHT22;13033;50.936;5.334;2023-03-24T14:33:38;11.80;99.90
25024;DHT22;13033;50.936;5.334;2023-03-24T14:36:05;11.80;99.90
25024;DHT22;13033;50.936;5.334;2023-03-24T14:38:39;11.80;99.90
25024;DHT22;13033;50.936;5.334;2023-03-24T14:41:15;11.90;99.90
25024;DHT22;13033;50.936;5.334;2023-03-24T14:54:22;11.80;99.90
25024;DHT22;13033;50.936;5.334;2023-03-24T14:56:52;11.80;99.90
25024;DHT22;13033;50.936;5.334;2023-03-24T14:59:22;11.80;99.90
25024;DHT22;13033;50.936;5.334;2023-03-24T15:01:57;11.80;99.90
25024;DHT22;13033;50.936;5.334;2023-03-24T15:04:24;11.90;99.90
25024;DHT22;13033;50.936;5.334;2023-03-24T15:06:50;12.10;99.90
25024;DHT22;13033;50.936;5.334;2023-03-24T15:09:17;12.30;99.90
25024;DHT22;13033;50.936;5.334;2023-03-24T15:11:44;12.40;99.90
25024;DHT22;13033;50.936;5.334;2023-03-24T15:14:22;12.50;99.90
25024;DHT22;13033;50.936;5.334;2023-03-24T15:17:02;12.60;99.90
25024;DHT22;13033;50.936;5.334;2023-03-24T15:19:29;12.80;99.90
25024;DHT22;13033;50.936;5.334;2023-03-24T15:22:00;13.40;99.90
25024;DHT22;13033;50.936;5.334;2023-03-24T15:24:28;14.70;99.90
25024;DHT22;13033;50.936;5.334;2023-03-24T15:27:18;15.60;99.90
25024;DHT22;13033;50.936;5.334;2023-03-24T15:29:45;16.10;99.90
25024;DHT22;13033;50.936;5.334;2023-03-24T15:32:19;16.80;99.90
25024;DHT22;13033;50.936;5.334;2023-03-24T15:34:54;16.40;99.90
25024;DHT22;13033;50.936;5.334;2023-03-24T15:37:23;16.00;99.90
25024;DHT22;13033;50.936;5.334;2023-03-24T15:39:51;15.60;99.90
25024;DHT22;13033;50.936;5.334;2023-03-24T15:42:20;15.80;99.90
25024;DHT22;13033;50.936;5.334;2023-03-24T15:44:47;15.70;99.90
25024;DHT22;13033;50.936;5.334;2023-03-24T15:47:24;15.60;99.90
25024;DHT22;13033;50.936;5.334;2023-03-24T15:49:54;15.50;99.90
25024;DHT22;13033;50.936;5.334;2023-03-24T15:52:30;15.80;99.90
25024;DHT22;13033;50.936;5.334;2023-03-24T15:57:42;16.80;99.90
25024;DHT22;13033;50.936;5.334;2023-03-24T16:00:14;17.50;99.90
25024;DHT22;13033;50.936;5.334;2023-03-24T16:02:53;18.00;99.90
25024;DHT22;13033;50.936;5.334;2023-03-24T16:05:28;17.70;99.90
25024;DHT22;13033;50.936;5.334;2023-03-24T16:08:05;18.00;99.90
25024;DHT22;13033;50.936;5.334;2023-03-24T16:13:03;17.90;99.90
25024;DHT22;13033;50.936;5.334;2023-03-24T16:15:35;18.40;99.90
25024;DHT22;13033;50.936;5.334;2023-03-24T16:18:01;18.30;99.90
25024;DHT22;13033;50.936;5.334;2023-03-24T16:20:28;18.00;99.90
25024;DHT22;13033;50.936;5.334;2023-03-24T16:22:53;18.10;99.90
25024;DHT22;13033;50.936;5.334;2023-03-24T16:25:21;18.00;99.90
25024;DHT22;13033;50.936;5.334;2023-03-24T16:27:47;18.30;99.90
25024;DHT22;13033;50.936;5.334;2023-03-24T16:30:19;18.90;99.90
25024;DHT22;13033;50.936;5.334;2023-03-24T16:32:45;19.50;99.90
25024;DHT22;13033;50.936;5.334;2023-03-24T16:35:11;19.40;99.90
25024;DHT22;13033;50.936;5.334;2023-03-24T16:37:37;19.30;99.90
25024;DHT22;13033;50.936;5.334;2023-03-24T16:40:17;19.10;99.90
25024;DHT22;13033;50.936;5.334;2023-03-24T16:42:44;18.40;99.90
25024;DHT22;13033;50.936;5.334;2023-03-24T16:45:10;17.00;99.90
25024;DHT22;13033;50.936;5.334;2023-03-24T16:47:36;16.10;99.90
25024;DHT22;13033;50.936;5.334;2023-03-24T16:50:13;15.40;99.90
25024;DHT22;13033;50.936;5.334;2023-03-24T16:52:41;15.00;99.90
25024;DHT22;13033;50.936;5.334;2023-03-24T16:55:07;14.80;99.90
25024;DHT22;13033;50.936;5.334;2023-03-24T16:57:33;14.50;99.90
25024;DHT22;13033;50.936;5.334;2023-03-24T16:59:58;14.20;99.90
25024;DHT22;13033;50.936;5.334;2023-03-24T17:02:25;14.10;99.90
25024;DHT22;13033;50.936;5.334;2023-03-24T17:04:51;13.90;99.90
25024;DHT22;13033;50.936;5.334;2023-03-24T17:07:17;13.80;99.90
25024;DHT22;13033;50.936;5.334;2023-03-24T17:09:43;13.80;99.90
25024;DHT22;13033;50.936;5.334;2023-03-24T17:12:10;13.90;99.90
25024;DHT22;13033;50.936;5.334;2023-03-24T17:14:36;13.90;99.90
25024;DHT22;13033;50.936;5.334;2023-03-24T17:17:02;13.80;99.90
25024;DHT22;13033;50.936;5.334;2023-03-24T17:19:28;13.70;99.90
25024;DHT22;13033;50.936;5.334;2023-03-24T17:21:59;13.70;99.90
25024;DHT22;13033;50.936;5.334;2023-03-24T17:24:26;13.70;99.90
25024;DHT22;13033;50.936;5.334;2023-03-24T17:26:53;13.60;99.90
25024;DHT22;13033;50.936;5.334;2023-03-24T17:29:18;13.50;99.90
25024;DHT22;13033;50.936;5.334;2023-03-24T17:31:44;13.50;99.90
25024;DHT22;13033;50.936;5.334;2023-03-24T17:34:14;13.40;99.90
25024;DHT22;13033;50.936;5.334;2023-03-24T17:36:42;13.30;99.90
25024;DHT22;13033;50.936;5.334;2023-03-24T17:39:09;13.30;99.90
25024;DHT22;13033;50.936;5.334;2023-03-24T17:41:38;13.30;99.90
25024;DHT22;13033;50.936;5.334;2023-03-24T17:44:04;13.30;99.90
25024;DHT22;13033;50.936;5.334;2023-03-24T17:46:30;13.30;99.90
25024;DHT22;13033;50.936;5.334;2023-03-24T17:48:55;13.20;99.90
25024;DHT22;13033;50.936;5.334;2023-03-24T17:51:21;13.20;99.90
25024;DHT22;13033;50.936;5.334;2023-03-24T17:53:47;13.20;99.90
25024;DHT22;13033;50.936;5.334;2023-03-24T17:56:12;13.20;99.90
25024;DHT22;13033;50.936;5.334;2023-03-24T17:58:38;13.30;99.90
25024;DHT22;13033;50.936;5.334;2023-03-24T18:01:04;13.20;99.90
25024;DHT22;13033;50.936;5.334;2023-03-24T18:03:34;13.20;99.90
25024;DHT22;13033;50.936;5.334;2023-03-24T18:06:07;13.20;99.90
25024;DHT22;13033;50.936;5.334;2023-03-24T18:08:34;13.10;99.90
25024;DHT22;13033;50.936;5.334;2023-03-24T18:11:09;13.10;99.90